Time;durP1;ratioP1;P1;durP2;ratioP2;P2;SDS_P1;SDS_P2;PMS_P1;PMS_P2;Temp;Humidity;BMP_temperature;BMP_pressure;BME280_temperature;BME280_humidity;BME280_pressure;Samples;Min_cycle;Max_cycle;Signal;HPM_P1;HPM_P2
2024/04/17 00:01:39;;;;;;;5.35;1.77;;;5.20;99.90;;;;;;5325176;26;20012;-73
2024/04/17 00:04:05;;;;;;;15.35;2.08;;;5.20;99.90;;;;;;5341669;26;20000;-74
2024/04/17 00:06:31;;;;;;;8.70;2.20;;;5.20;99.90;;;;;;5361369;26;20040;-74
2024/04/17 00:08:56;;;;;;;5.97;1.13;;;5.20;99.90;;;;;;5365370;26;20004;-73
2024/04/17 00:11:22;;;;;;;9.13;1.70;;;5.20;99.90;;;;;;5336460;26;20009;-74
2024/04/17 00:13:47;;;;;;;8.05;1.83;;;5.20;99.90;;;;;;5323664;26;20011;-74
2024/04/17 00:16:13;;;;;;;6.85;1.90;;;5.10;99.90;;;;;;5331295;26;20011;-72
2024/04/17 00:18:39;;;;;;;19.73;3.05;;;5.10;99.90;;;;;;5354930;26;20608;-74
2024/04/17 00:21:04;;;;;;;8.95;1.25;;;5.10;99.90;;;;;;5343035;26;20032;-74
2024/04/17 00:23:30;;;;;;;9.13;1.83;;;5.10;99.90;;;;;;5365679;26;20484;-74
2024/04/17 00:25:55;;;;;;;7.25;1.35;;;5.10;99.90;;;;;;5337613;26;20016;-74
2024/04/17 00:28:22;;;;;;;14.98;3.45;;;5.10;99.90;;;;;;5360394;26;20020;-74
2024/04/17 00:30:48;;;;;;;10.50;2.08;;;5.10;99.90;;;;;;5326723;26;20012;-74
2024/04/17 00:33:14;;;;;;;6.30;2.28;;;5.10;99.90;;;;;;5358366;26;20000;-72
2024/04/17 00:35:39;;;;;;;9.20;2.10;;;5.20;99.90;;;;;;5356156;26;20007;-74
2024/04/17 00:38:05;;;;;;;10.80;1.67;;;5.20;99.90;;;;;;5352701;26;19997;-74
2024/04/17 00:40:32;;;;;;;3.72;1.98;;;5.20;99.90;;;;;;5330466;26;20045;-73
2024/04/17 00:43:00;;;;;;;10.15;2.20;;;5.30;99.90;;;;;;5362306;26;20608;-74
2024/04/17 00:45:39;;;;;;;6.22;1.38;;;5.40;99.90;;;;;;5358011;26;20015;-74
2024/04/17 00:48:07;;;;;;;6.60;1.38;;;5.40;99.90;;;;;;5318752;26;20012;-73
2024/04/17 00:50:34;;;;;;;10.10;2.03;;;5.50;99.90;;;;;;5326011;26;20089;-73
2024/04/17 00:53:00;;;;;;;5.25;1.17;;;5.60;99.90;;;;;;5326075;26;20000;-74
2024/04/17 00:55:26;;;;;;;9.23;2.25;;;5.70;99.90;;;;;;5326356;26;20015;-73
2024/04/17 00:57:52;;;;;;;11.60;1.50;;;5.80;99.90;;;;;;5330021;26;20008;-74
2024/04/17 01:00:18;;;;;;;4.95;1.10;;;5.90;99.90;;;;;;5326178;26;20001;-73
2024/04/17 01:02:43;;;;;;;7.70;0.93;;;6.00;99.90;;;;;;5366069;26;20004;-73
2024/04/17 01:05:09;;;;;;;4.20;0.82;;;6.10;99.90;;;;;;5327349;26;20514;-74
2024/04/17 01:07:35;;;;;;;13.00;1.50;;;6.20;99.90;;;;;;5350552;26;20450;-73
2024/04/17 01:10:00;;;;;;;5.45;1.45;;;6.30;99.90;;;;;;5355088;26;20018;-73
2024/04/17 01:12:26;;;;;;;8.27;1.65;;;6.30;99.90;;;;;;5368935;26;20002;-73
2024/04/17 01:14:51;;;;;;;8.70;1.00;;;6.30;99.90;;;;;;5323027;26;20441;-73
2024/04/17 01:17:17;;;;;;;12.25;2.15;;;6.30;99.90;;;;;;5360285;26;20001;-73
2024/04/17 01:19:43;;;;;;;6.68;1.50;;;6.30;99.90;;;;;;5362528;26;20591;-72
2024/04/17 01:22:08;;;;;;;5.35;1.48;;;6.30;99.90;;;;;;5331720;26;20004;-73
2024/04/17 01:24:34;;;;;;;5.20;1.00;;;6.30;99.90;;;;;;5354468;26;21549;-73
2024/04/17 01:26:59;;;;;;;2.33;0.60;;;6.30;99.90;;;;;;5358777;26;20532;-74
2024/04/17 01:29:25;;;;;;;5.78;1.33;;;6.30;99.90;;;;;;5352074;26;20434;-73
2024/04/17 01:31:50;;;;;;;2.63;0.90;;;6.30;99.90;;;;;;5367905;26;20052;-73
2024/04/17 01:34:16;;;;;;;5.78;0.50;;;6.30;99.90;;;;;;5336539;26;20081;-73
2024/04/17 01:36:41;;;;;;;3.22;1.30;;;6.30;99.90;;;;;;5355534;26;20019;-73
2024/04/17 01:39:07;;;;;;;8.82;0.90;;;6.30;99.90;;;;;;5365405;26;20039;-73
2024/04/17 01:41:33;;;;;;;2.67;0.90;;;6.30;99.90;;;;;;5360945;26;20005;-73
2024/04/17 01:43:59;;;;;;;2.90;1.20;;;6.30;99.90;;;;;;5322968;26;20044;-73
2024/04/17 01:46:24;;;;;;;4.95;1.58;;;6.40;99.90;;;;;;5357339;26;20005;-73
2024/04/17 01:48:50;;;;;;;6.13;1.67;;;6.30;99.90;;;;;;5330616;26;20024;-73
2024/04/17 01:51:15;;;;;;;3.42;1.02;;;6.30;99.90;;;;;;5331417;26;20385;-73
2024/04/17 01:53:41;;;;;;;4.93;2.10;;;6.30;99.90;;;;;;5365734;26;20000;-73
2024/04/17 01:56:06;;;;;;;6.53;1.60;;;6.30;99.90;;;;;;5370249;26;20027;-73
2024/04/17 01:58:32;;;;;;;3.78;1.08;;;6.20;99.90;;;;;;5374662;26;20344;-72
2024/04/17 02:01:03;;;;;;;3.10;0.93;;;6.20;99.90;;;;;;5346271;26;20453;-73
2024/04/17 02:03:29;;;;;;;6.88;1.27;;;6.20;99.90;;;;;;5372880;26;20066;-73
2024/04/17 02:05:54;;;;;;;2.55;1.02;;;6.20;99.90;;;;;;5361889;26;19996;-73
2024/04/17 02:08:20;;;;;;;3.67;1.10;;;6.20;99.90;;;;;;5358434;26;20054;-74
2024/04/17 02:10:45;;;;;;;6.78;1.42;;;6.20;99.90;;;;;;5354661;26;20021;-71
2024/04/17 02:13:11;;;;;;;5.35;1.60;;;6.20;99.90;;;;;;5372734;26;19999;-73
2024/04/17 02:15:36;;;;;;;5.35;1.10;;;6.20;99.90;;;;;;5339135;26;20457;-74
2024/04/17 02:18:02;;;;;;;4.90;1.27;;;6.20;99.90;;;;;;5355953;26;20007;-74
2024/04/17 02:20:27;;;;;;;5.43;1.25;;;6.20;99.90;;;;;;5352861;26;20070;-73
2024/04/17 02:22:53;;;;;;;4.93;1.80;;;6.30;99.90;;;;;;5366229;26;19996;-73
2024/04/17 02:25:19;;;;;;;2.85;0.60;;;6.30;99.90;;;;;;5356945;26;20020;-75
2024/04/17 02:27:44;;;;;;;3.15;0.70;;;6.30;99.90;;;;;;5368077;26;20016;-74
2024/04/17 02:30:10;;;;;;;4.38;0.65;;;6.30;99.90;;;;;;5327702;26;20000;-73
2024/04/17 02:32:35;;;;;;;1.67;0.30;;;6.30;99.90;;;;;;5362453;26;20078;-73
2024/04/17 02:35:01;;;;;;;6.70;1.13;;;6.40;99.90;;;;;;5374195;26;20000;-74
2024/04/17 02:37:27;;;;;;;2.33;0.43;;;6.30;99.90;;;;;;5358663;26;19997;-73
2024/04/17 02:39:52;;;;;;;3.15;0.60;;;6.40;99.90;;;;;;5371596;26;20068;-73
2024/04/17 02:42:18;;;;;;;3.45;0.40;;;6.40;99.90;;;;;;5356633;26;20477;-73
2024/04/17 02:44:45;;;;;;;9.43;0.93;;;6.40;99.90;;;;;;5370443;26;20004;-74
2024/04/17 02:47:11;;;;;;;2.78;0.82;;;6.40;99.90;;;;;;5364269;26;20000;-72
2024/04/17 02:49:36;;;;;;;2.10;0.50;;;6.40;99.90;;;;;;5352569;26;20101;-72
2024/04/17 02:52:02;;;;;;;8.65;1.08;;;6.40;99.90;;;;;;5373247;26;20811;-72
2024/04/17 02:54:27;;;;;;;3.65;0.40;;;6.40;99.90;;;;;;5365957;26;20005;-73
2024/04/17 02:56:53;;;;;;;3.00;0.20;;;6.40;99.90;;;;;;5335293;26;19996;-72
2024/04/17 02:59:18;;;;;;;3.13;0.40;;;6.40;99.90;;;;;;5364343;26;20330;-72
2024/04/17 03:01:44;;;;;;;5.15;0.63;;;6.40;99.90;;;;;;5331970;26;20440;-73
2024/04/17 03:04:10;;;;;;;3.55;0.28;;;6.40;99.90;;;;;;5354793;26;20020;-73
2024/04/17 03:06:35;;;;;;;4.15;0.30;;;6.30;99.90;;;;;;5326004;26;20845;-73
2024/04/17 03:09:01;;;;;;;6.35;0.60;;;6.30;99.90;;;;;;5360985;26;20008;-72
2024/04/17 03:11:26;;;;;;;2.88;0.57;;;6.30;99.90;;;;;;5352062;26;20048;-73
2024/04/17 03:13:52;;;;;;;3.20;0.43;;;6.30;99.90;;;;;;5354079;26;20078;-71
2024/04/17 03:16:17;;;;;;;6.65;0.55;;;6.30;99.90;;;;;;5356655;26;20400;-73
2024/04/17 03:18:44;;;;;;;8.52;0.68;;;6.30;99.90;;;;;;5329971;26;20012;-73
2024/04/17 03:21:09;;;;;;;2.97;0.95;;;6.30;99.90;;;;;;5360928;26;20000;-73
2024/04/17 03:23:35;;;;;;;2.70;0.47;;;6.30;99.90;;;;;;5331740;26;20000;-71
2024/04/17 03:26:01;;;;;;;5.72;0.43;;;6.30;99.90;;;;;;5377952;26;20020;-73
2024/04/17 03:28:27;;;;;;;3.53;1.17;;;6.30;99.90;;;;;;5337124;26;20106;-73
2024/04/17 03:30:52;;;;;;;3.85;0.55;;;6.30;99.90;;;;;;5366551;26;20078;-73
2024/04/17 03:33:18;;;;;;;8.00;0.65;;;6.30;99.90;;;;;;5373298;26;20015;-72
2024/04/17 03:36:04;;;;;;;4.80;0.77;;;6.30;99.90;;;;;;5353951;26;20001;-72
2024/04/17 03:38:29;;;;;;;4.80;0.75;;;6.30;99.90;;;;;;5361482;26;20450;-73
2024/04/17 03:40:55;;;;;;;2.50;0.40;;;6.30;99.90;;;;;;5338284;26;20008;-71
2024/04/17 03:43:21;;;;;;;5.70;1.35;;;6.30;99.90;;;;;;5356166;26;20008;-74
2024/04/17 03:45:47;;;;;;;1.73;0.40;;;6.30;99.90;;;;;;5317169;26;20069;-74
2024/04/17 03:48:13;;;;;;;5.40;1.15;;;6.20;99.90;;;;;;5333904;26;20013;-73
2024/04/17 03:50:39;;;;;;;3.45;0.40;;;6.20;99.90;;;;;;5336791;26;20005;-73
2024/04/17 03:53:04;;;;;;;3.25;0.70;;;6.20;99.90;;;;;;5361479;26;20018;-73
2024/04/17 03:55:30;;;;;;;5.78;0.60;;;6.20;99.90;;;;;;5350697;26;20015;-72
2024/04/17 03:57:55;;;;;;;4.75;0.88;;;6.20;99.90;;;;;;5344775;26;20000;-72
2024/04/17 04:00:21;;;;;;;4.93;0.40;;;6.20;99.90;;;;;;5357473;26;20016;-73
2024/04/17 04:02:46;;;;;;;11.55;0.80;;;6.20;99.90;;;;;;5355561;26;20032;-74
2024/04/17 04:05:12;;;;;;;5.15;0.70;;;6.20;99.90;;;;;;5371925;26;20000;-73
2024/04/17 04:07:38;;;;;;;4.57;0.47;;;6.20;99.90;;;;;;5320591;26;20015;-72
2024/04/17 04:10:05;;;;;;;6.45;1.00;;;6.20;99.90;;;;;;5361785;26;20102;-73
2024/04/17 04:12:30;;;;;;;2.45;0.65;;;6.10;99.90;;;;;;5358803;26;20321;-73
2024/04/17 04:14:56;;;;;;;4.55;1.15;;;6.00;99.90;;;;;;5330489;26;20044;-72
2024/04/17 04:17:21;;;;;;;5.72;1.00;;;6.00;99.90;;;;;;5339949;26;20008;-72
2024/04/17 04:19:47;;;;;;;8.25;0.50;;;6.00;99.90;;;;;;5353069;26;20025;-73
2024/04/17 04:22:12;;;;;;;8.75;1.00;;;5.90;99.90;;;;;;5358007;26;20004;-73
2024/04/17 04:24:39;;;;;;;6.35;0.45;;;5.80;99.90;;;;;;5358592;26;20013;-72
2024/04/17 04:27:05;;;;;;;10.32;1.55;;;5.80;99.90;;;;;;5326316;26;19993;-72
2024/04/17 04:29:30;;;;;;;2.05;0.60;;;5.70;99.90;;;;;;5325327;26;20065;-72
2024/04/17 04:31:56;;;;;;;6.93;0.70;;;5.60;99.90;;;;;;5366671;26;20045;-72
2024/04/17 04:34:21;;;;;;;6.20;0.63;;;5.50;99.90;;;;;;5356168;26;20406;-73
2024/04/17 04:36:47;;;;;;;5.03;0.90;;;5.50;99.90;;;;;;5321012;26;20082;-73
2024/04/17 04:39:12;;;;;;;5.50;0.52;;;5.40;99.90;;;;;;5352492;26;20004;-73
2024/04/17 04:41:38;;;;;;;2.50;0.60;;;5.40;99.90;;;;;;5363242;26;19997;-72
2024/04/17 04:44:04;;;;;;;4.45;0.55;;;5.40;99.90;;;;;;5363375;26;20008;-72
2024/04/17 04:46:29;;;;;;;7.47;0.45;;;5.30;99.90;;;;;;5358873;26;19996;-73
2024/04/17 04:48:55;;;;;;;7.20;0.70;;;5.30;99.90;;;;;;5359868;26;20008;-73
2024/04/17 04:51:20;;;;;;;7.00;1.92;;;5.30;99.90;;;;;;5352774;26;20000;-73
2024/04/17 04:53:46;;;;;;;4.65;0.80;;;5.30;99.90;;;;;;5332893;26;19997;-73
2024/04/17 04:56:11;;;;;;;4.10;0.82;;;5.40;99.90;;;;;;5356192;26;20058;-73
2024/04/17 04:58:37;;;;;;;5.78;0.60;;;5.40;99.90;;;;;;5326899;26;20050;-71
2024/04/17 05:01:03;;;;;;;4.47;1.00;;;5.40;99.90;;;;;;5365354;26;20000;-71
2024/04/17 05:03:28;;;;;;;3.45;0.60;;;5.50;99.90;;;;;;5337891;26;20343;-72
2024/04/17 05:05:54;;;;;;;6.95;1.13;;;5.40;99.90;;;;;;5339898;26;20004;-73
2024/04/17 05:08:20;;;;;;;8.35;0.98;;;5.50;99.90;;;;;;5353743;26;20001;-74
2024/04/17 05:10:45;;;;;;;6.03;1.33;;;5.40;99.90;;;;;;5364434;26;20039;-73
2024/04/17 05:13:11;;;;;;;7.30;1.73;;;5.40;99.90;;;;;;5318986;26;20000;-72
2024/04/17 05:15:36;;;;;;;6.32;0.85;;;5.40;99.90;;;;;;5353387;26;20364;-69
2024/04/17 05:18:02;;;;;;;3.70;0.82;;;5.30;99.90;;;;;;5329993;26;20107;-72
2024/04/17 05:20:28;;;;;;;4.13;1.23;;;5.30;99.90;;;;;;5354422;26;20008;-72
2024/04/17 05:22:53;;;;;;;3.90;0.70;;;5.30;99.90;;;;;;5363497;26;20070;-72
2024/04/17 05:25:20;;;;;;;5.55;0.90;;;5.30;99.90;;;;;;5352575;26;20004;-71
2024/04/17 05:27:46;;;;;;;3.92;1.02;;;5.30;99.90;;;;;;5365631;26;20014;-72
2024/04/17 05:30:12;;;;;;;11.02;1.13;;;5.30;99.90;;;;;;5335145;26;20016;-72
2024/04/17 05:32:37;;;;;;;9.35;1.92;;;5.30;99.90;;;;;;5368632;26;20397;-71
2024/04/17 05:35:04;;;;;;;3.85;0.77;;;5.30;99.90;;;;;;5334030;26;20012;-72
2024/04/17 05:37:29;;;;;;;4.13;0.70;;;5.30;99.90;;;;;;5360303;26;20345;-72
2024/04/17 05:39:55;;;;;;;8.40;1.50;;;5.40;99.90;;;;;;5366925;26;20078;-72
2024/04/17 05:42:20;;;;;;;15.18;1.38;;;5.40;99.90;;;;;;5333316;26;20078;-70
2024/04/17 05:44:46;;;;;;;5.15;0.73;;;5.50;99.90;;;;;;5374056;26;19996;-71
2024/04/17 05:47:12;;;;;;;3.17;0.90;;;5.50;99.90;;;;;;5366791;26;20087;-72
2024/04/17 05:49:37;;;;;;;2.88;0.98;;;5.60;99.90;;;;;;5367184;26;20005;-71
2024/04/17 05:52:03;;;;;;;5.68;1.52;;;6.10;99.90;;;;;;5367435;26;20353;-72
2024/04/17 05:54:28;;;;;;;7.43;1.23;;;7.00;99.90;;;;;;5363993;26;20012;-71
2024/04/17 05:56:54;;;;;;;10.38;1.40;;;8.00;99.90;;;;;;5334512;26;20433;-72
2024/04/17 05:59:20;;;;;;;5.63;1.15;;;9.00;99.90;;;;;;5363759;26;19992;-71
2024/04/17 06:01:45;;;;;;;3.53;0.70;;;9.60;99.90;;;;;;5363536;26;19996;-72
2024/04/17 06:04:11;;;;;;;6.10;1.02;;;10.40;99.90;;;;;;5361722;26;20044;-70
2024/04/17 06:06:36;;;;;;;6.28;1.02;;;11.20;99.90;;;;;;5330969;26;20469;-72
2024/04/17 06:09:02;;;;;;;3.08;0.68;;;11.80;99.90;;;;;;5365241;26;20000;-72
2024/04/17 06:11:27;;;;;;;2.65;0.55;;;12.40;99.90;;;;;;5332850;26;20016;-73
2024/04/17 06:13:53;;;;;;;5.15;0.75;;;13.10;99.90;;;;;;5337181;26;20072;-73
2024/04/17 06:16:18;;;;;;;4.47;0.70;;;13.70;99.90;;;;;;5361522;26;19996;-73
2024/04/17 06:18:44;;;;;;;5.97;0.93;;;14.00;99.90;;;;;;5364994;26;20046;-72
2024/04/17 06:21:09;;;;;;;3.45;0.60;;;13.90;99.90;;;;;;5337441;26;20011;-72
2024/04/17 06:23:35;;;;;;;1.88;0.45;;;13.70;99.90;;;;;;5358267;26;20000;-73
2024/04/17 06:26:00;;;;;;;3.10;0.47;;;13.70;99.90;;;;;;5363693;26;20004;-72
2024/04/17 06:28:26;;;;;;;5.40;0.60;;;13.90;99.90;;;;;;5330205;26;20547;-72
2024/04/17 06:30:52;;;;;;;9.20;0.85;;;14.10;99.90;;;;;;5331931;26;20045;-72
2024/04/17 06:33:17;;;;;;;4.97;0.55;;;14.50;99.90;;;;;;5329692;26;20024;-73
2024/04/17 06:35:43;;;;;;;6.05;0.95;;;15.00;99.90;;;;;;5362840;26;20548;-74
2024/04/17 06:38:08;;;;;;;4.00;0.68;;;15.20;99.90;;;;;;5338279;26;20000;-74
2024/04/17 06:40:34;;;;;;;5.43;0.93;;;15.50;99.90;;;;;;5369091;26;20016;-73
2024/04/17 06:42:59;;;;;;;2.47;0.40;;;16.20;99.90;;;;;;5369276;26;20019;-74
2024/04/17 06:45:25;;;;;;;3.60;0.88;;;16.60;99.50;;;;;;5364956;26;20078;-74
2024/04/17 06:47:51;;;;;;;4.25;0.85;;;16.90;99.90;;;;;;5364911;26;20536;-75
2024/04/17 06:50:16;;;;;;;6.38;0.93;;;17.70;98.20;;;;;;5371312;26;20038;-74
2024/04/17 06:52:42;;;;;;;4.63;0.50;;;18.20;96.50;;;;;;5340338;26;20042;-74
2024/04/17 06:55:07;;;;;;;2.65;0.80;;;18.20;96.30;;;;;;5336080;26;20009;-73
2024/04/17 06:57:33;;;;;;;1.15;0.28;;;18.00;96.60;;;;;;5369829;26;20015;-73
2024/04/17 06:59:58;;;;;;;2.20;0.10;;;17.70;94.90;;;;;;5342157;26;20078;-73
2024/04/17 07:02:24;;;;;;;1.10;0.10;;;17.30;93.90;;;;;;5336589;26;20082;-73
2024/04/17 07:04:50;;;;;;;2.17;0.28;;;16.80;94.40;;;;;;5372248;26;20098;-74
2024/04/17 07:07:15;;;;;;;0.80;0.10;;;15.90;94.80;;;;;;5335701;26;20011;-73
2024/04/17 07:09:41;;;;;;;2.55;0.95;;;14.90;96.50;;;;;;5369888;26;20032;-74
2024/04/17 07:12:07;;;;;;;1.95;0.10;;;14.10;96.50;;;;;;5340856;26;19997;-75
2024/04/17 07:14:33;;;;;;;0.88;0.30;;;13.50;97.30;;;;;;5340892;26;20000;-73
2024/04/17 07:16:58;;;;;;;2.90;0.10;;;12.90;97.70;;;;;;5345871;26;20077;-72
2024/04/17 07:19:24;;;;;;;1.10;0.20;;;12.50;98.60;;;;;;5340439;26;20141;-73
2024/04/17 07:21:51;;;;;;;2.30;0.20;;;12.30;98.90;;;;;;5342150;26;20453;-74
2024/04/17 07:24:16;;;;;;;3.25;0.20;;;12.10;99.90;;;;;;5368474;26;20031;-73
2024/04/17 07:26:42;;;;;;;1.60;0.30;;;12.00;99.90;;;;;;5336905;26;20008;-73
2024/04/17 07:29:07;;;;;;;4.47;0.30;;;11.90;99.90;;;;;;5355811;26;20081;-75
2024/04/17 07:31:33;;;;;;;0.95;0.10;;;12.00;99.90;;;;;;5369669;26;20021;-72
2024/04/17 07:33:58;;;;;;;2.42;0.30;;;12.10;99.90;;;;;;5341402;26;20468;-74
2024/04/17 07:36:24;;;;;;;2.78;0.20;;;12.20;99.90;;;;;;5372744;26;19992;-75
2024/04/17 07:38:49;;;;;;;3.50;0.30;;;12.40;99.90;;;;;;5343225;26;19993;-74
2024/04/17 07:41:15;;;;;;;2.40;0.30;;;12.30;99.90;;;;;;5337144;26;20015;-73
2024/04/17 07:43:40;;;;;;;5.57;0.77;;;11.80;99.90;;;;;;5367986;26;20445;-74
2024/04/17 07:46:06;;;;;;;2.97;0.35;;;11.20;99.90;;;;;;5335068;26;19996;-72
2024/04/17 07:48:32;;;;;;;6.63;0.55;;;10.70;99.90;;;;;;5368989;26;20004;-73
2024/04/17 07:50:58;;;;;;;2.53;0.30;;;10.40;99.90;;;;;;5367784;26;20000;-74
2024/04/17 07:53:23;;;;;;;1.83;0.20;;;9.80;99.90;;;;;;5372749;26;20004;-74
2024/04/17 07:55:49;;;;;;;4.05;0.10;;;9.50;99.90;;;;;;5341595;26;20462;-75
2024/04/17 07:58:14;;;;;;;2.92;0.32;;;9.30;99.90;;;;;;5339067;26;20000;-73
2024/04/17 08:00:41;;;;;;;1.02;0.17;;;9.20;99.90;;;;;;5361577;26;20005;-72
2024/04/17 08:03:07;;;;;;;0.55;0.22;;;9.10;99.90;;;;;;5370885;26;20352;-73
2024/04/17 08:05:33;;;;;;;1.35;0.20;;;9.00;99.90;;;;;;5337669;26;20004;-74
2024/04/17 08:07:58;;;;;;;3.80;0.43;;;8.90;99.90;;;;;;5368280;26;19996;-73
2024/04/17 08:10:24;;;;;;;0.20;0.00;;;9.00;99.90;;;;;;5367576;26;20097;-74
2024/04/17 08:12:52;;;;;;;2.72;0.30;;;9.00;99.90;;;;;;5341392;26;20349;-73
2024/04/17 08:15:20;;;;;;;0.45;0.10;;;9.00;99.90;;;;;;5333498;26;20037;-73
2024/04/17 08:17:46;;;;;;;3.40;0.40;;;8.90;99.90;;;;;;5338241;26;19997;-72
2024/04/17 08:20:12;;;;;;;0.90;0.20;;;9.10;99.90;;;;;;5372600;26;20015;-74
2024/04/17 08:22:38;;;;;;;3.67;0.38;;;9.30;99.90;;;;;;5335545;26;19997;-73
2024/04/17 08:25:04;;;;;;;1.52;0.45;;;9.50;99.90;;;;;;5333787;26;20781;-73
2024/04/17 08:27:30;;;;;;;0.50;0.20;;;9.90;99.90;;;;;;5338932;26;20001;-72
2024/04/17 08:29:55;;;;;;;0.75;0.25;;;10.10;99.90;;;;;;5370969;26;20547;-74
2024/04/17 08:32:21;;;;;;;2.97;0.17;;;10.20;99.90;;;;;;5334085;26;20001;-72
2024/04/17 08:34:47;;;;;;;0.15;0.00;;;10.40;99.90;;;;;;5366565;26;20076;-74
2024/04/17 08:37:12;;;;;;;0.32;0.00;;;10.30;99.90;;;;;;5339564;26;20000;-73
2024/04/17 08:39:38;;;;;;;2.13;0.10;;;10.30;99.90;;;;;;5330462;26;20001;-73
2024/04/17 08:42:05;;;;;;;0.68;0.00;;;10.40;99.90;;;;;;5366927;26;20012;-72
2024/04/17 08:44:34;;;;;;;1.45;0.15;;;10.50;99.90;;;;;;5366803;26;20004;-73
2024/04/17 08:47:03;;;;;;;2.15;0.10;;;10.70;99.90;;;;;;5332232;26;20001;-73
2024/04/17 08:49:32;;;;;;;2.67;0.57;;;10.90;99.90;;;;;;5362990;26;20024;-73
2024/04/17 08:51:59;;;;;;;1.45;0.10;;;10.90;99.90;;;;;;5368203;26;20020;-73
2024/04/17 08:54:25;;;;;;;1.38;0.13;;;11.00;99.90;;;;;;5366600;26;20077;-74
2024/04/17 08:56:50;;;;;;;0.43;0.05;;;11.10;99.90;;;;;;5365059;26;20004;-74
2024/04/17 08:59:16;;;;;;;0.50;0.17;;;11.10;99.90;;;;;;5361494;26;20501;-73
2024/04/17 09:01:42;;;;;;;0.50;0.00;;;11.20;99.90;;;;;;5329426;26;20013;-73
2024/04/17 09:04:09;;;;;;;1.05;0.20;;;11.40;99.90;;;;;;5363093;26;20036;-73
2024/04/17 09:06:38;;;;;;;2.20;0.20;;;11.60;99.90;;;;;;5365147;26;20004;-73
2024/04/17 09:09:07;;;;;;;0.47;0.10;;;11.80;99.90;;;;;;5331786;26;20004;-72
2024/04/17 09:11:34;;;;;;;1.17;0.10;;;12.00;99.90;;;;;;5333413;26;20012;-72
2024/04/17 09:14:00;;;;;;;0.75;0.32;;;12.10;99.90;;;;;;5328909;26;20343;-73
2024/04/17 09:16:26;;;;;;;1.55;0.10;;;12.40;99.90;;;;;;5364816;26;20019;-71
2024/04/17 09:18:51;;;;;;;0.90;0.20;;;12.60;99.90;;;;;;5363798;26;20335;-73
2024/04/17 09:21:17;;;;;;;1.75;0.20;;;12.80;99.90;;;;;;5332374;26;20016;-72
2024/04/17 09:23:43;;;;;;;2.47;0.13;;;12.80;99.90;;;;;;5362316;26;20005;-73
2024/04/17 09:26:18;;;;;;;1.10;0.10;;;12.90;99.90;;;;;;5335391;26;20016;-73
2024/04/17 09:28:45;;;;;;;3.30;0.10;;;12.90;99.90;;;;;;5361456;26;20015;-72
2024/04/17 09:31:11;;;;;;;1.85;0.20;;;13.20;99.90;;;;;;5327688;26;20005;-73
2024/04/17 09:33:46;;;;;;;4.07;0.10;;;13.30;99.90;;;;;;5366798;26;20000;-73
2024/04/17 09:36:13;;;;;;;1.55;0.40;;;13.40;99.70;;;;;;5330285;26;20004;-73
2024/04/17 09:38:41;;;;;;;1.98;0.15;;;13.30;98.30;;;;;;5359732;26;20023;-72
2024/04/17 09:41:08;;;;;;;1.65;0.22;;;13.10;97.80;;;;;;5337736;26;20000;-72
2024/04/17 09:43:44;;;;;;;4.47;0.65;;;12.80;97.60;;;;;;5359854;26;20432;-72
2024/04/17 09:46:15;;;;;;;1.48;0.10;;;12.60;97.80;;;;;;5364542;26;19996;-73
2024/04/17 09:48:41;;;;;;;;;;;12.40;98.70;;;;;;5358217;26;20000;-73
2024/04/17 09:51:12;;;;;;;2.33;0.10;;;12.30;98.60;;;;;;5356982;26;20266;-73
2024/04/17 09:53:40;;;;;;;;;;;12.10;99.10;;;;;;5333265;26;20001;-72
2024/04/17 09:56:08;;;;;;;3.17;0.22;;;12.20;98.90;;;;;;5341126;26;20418;-75
2024/04/17 09:58:34;;;;;;;2.53;0.17;;;12.50;99.10;;;;;;5336789;26;20024;-72
2024/04/17 10:01:07;;;;;;;3.10;0.30;;;12.70;99.70;;;;;;5370438;26;20035;-72
2024/04/17 10:03:36;;;;;;;1.83;0.30;;;13.10;99.90;;;;;;5364733;26;20460;-72
2024/04/17 10:06:03;;;;;;;1.70;0.20;;;13.40;99.90;;;;;;5367141;26;20004;-73
2024/04/17 10:08:31;;;;;;;2.92;0.10;;;13.40;99.50;;;;;;5368376;26;20000;-71
2024/04/17 10:10:57;;;;;;;4.63;0.32;;;13.30;99.20;;;;;;5331481;26;20051;-73
2024/04/17 10:13:23;;;;;;;1.20;0.15;;;13.50;99.70;;;;;;5366677;26;20476;-73
2024/04/17 10:15:50;;;;;;;2.03;0.17;;;13.70;98.10;;;;;;5342311;26;20000;-73
2024/04/17 10:18:15;;;;;;;2.95;0.35;;;13.60;98.50;;;;;;5342471;26;20050;-73
2024/04/17 10:20:42;;;;;;;1.08;0.28;;;13.60;98.50;;;;;;5366207;26;20012;-71
2024/04/17 10:23:08;;;;;;;2.40;0.20;;;13.30;97.90;;;;;;5337149;26;20000;-72
2024/04/17 10:25:44;;;;;;;2.58;0.10;;;13.10;99.30;;;;;;5336494;26;19996;-72
2024/04/17 10:28:11;;;;;;;3.08;0.30;;;12.80;99.90;;;;;;5336137;26;20105;-73
2024/04/17 10:30:37;;;;;;;4.05;0.30;;;12.60;99.90;;;;;;5370827;26;20070;-74
2024/04/17 10:33:04;;;;;;;1.10;0.38;;;12.30;99.90;;;;;;5340654;26;20003;-73
2024/04/17 10:35:32;;;;;;;0.60;0.00;;;11.90;99.90;;;;;;5340514;26;19992;-74
2024/04/17 10:38:06;;;;;;;1.15;0.25;;;11.40;99.90;;;;;;5373357;26;20008;-73
2024/04/17 10:40:31;;;;;;;0.32;0.00;;;11.00;99.90;;;;;;5373280;26;20000;-71
2024/04/17 10:42:57;;;;;;;5.35;0.82;;;10.60;99.90;;;;;;5372596;26;20350;-72
2024/04/17 10:45:24;;;;;;;0.28;0.17;;;10.40;99.90;;;;;;5366501;26;20039;-72
2024/04/17 10:47:50;;;;;;;1.58;0.25;;;10.10;99.90;;;;;;5340194;26;20419;-72
2024/04/17 10:50:17;;;;;;;0.75;0.28;;;9.70;99.90;;;;;;5335748;26;20000;-73
2024/04/17 10:52:43;;;;;;;1.98;0.10;;;9.50;99.90;;;;;;5341544;26;19997;-73
2024/04/17 10:55:10;;;;;;;0.45;0.15;;;9.20;99.90;;;;;;5365050;26;20011;-71
2024/04/17 10:57:36;;;;;;;0.63;0.22;;;9.10;99.90;;;;;;5372567;26;20029;-72
2024/04/17 11:00:02;;;;;;;1.65;0.30;;;9.00;99.90;;;;;;5338766;26;20070;-71
2024/04/17 11:02:28;;;;;;;3.92;0.20;;;8.90;99.90;;;;;;5339817;26;20000;-71
2024/04/17 11:04:53;;;;;;;1.08;0.15;;;8.70;99.90;;;;;;5366976;26;20004;-68
2024/04/17 11:07:20;;;;;;;7.38;0.30;;;8.50;99.90;;;;;;5337733;26;20019;-72
2024/04/17 11:09:46;;;;;;;1.30;0.40;;;8.40;99.90;;;;;;5334351;26;20093;-71
2024/04/17 11:12:17;;;;;;;0.95;0.70;;;8.10;99.90;;;;;;5340313;26;20070;-70
2024/04/17 11:14:43;;;;;;;0.88;0.20;;;7.80;99.90;;;;;;5328113;26;20011;-70
2024/04/17 11:17:09;;;;;;;2.30;0.20;;;7.60;99.90;;;;;;5368068;26;20004;-69
2024/04/17 11:19:36;;;;;;;2.80;0.40;;;7.50;99.90;;;;;;5366639;26;20711;-70
2024/04/17 11:22:12;;;;;;;1.23;0.25;;;7.40;99.90;;;;;;5369304;26;20004;-71
2024/04/17 11:24:47;;;;;;;0.85;0.20;;;7.30;99.90;;;;;;5334016;26;20005;-69
2024/04/17 11:27:18;;;;;;;2.72;0.30;;;7.20;99.90;;;;;;5367523;26;20000;-71
2024/04/17 11:29:47;;;;;;;1.80;0.20;;;7.20;99.90;;;;;;5364051;26;20028;-70
2024/04/17 11:32:13;;;;;;;3.22;0.47;;;7.10;99.90;;;;;;5338701;26;20537;-71
2024/04/17 11:34:39;;;;;;;1.75;0.28;;;7.00;99.90;;;;;;5365352;26;20005;-70
2024/04/17 11:37:06;;;;;;;2.08;0.30;;;7.00;99.90;;;;;;5364605;26;20016;-71
2024/04/17 11:39:32;;;;;;;3.22;0.40;;;7.00;99.90;;;;;;5371851;26;20048;-71
2024/04/17 11:42:04;;;;;;;1.13;0.30;;;7.10;99.90;;;;;;5369138;26;20032;-70
2024/04/17 11:44:43;;;;;;;1.05;0.15;;;7.10;99.90;;;;;;5336123;26;20007;-69
2024/04/17 11:47:13;;;;;;;4.07;0.68;;;7.10;99.90;;;;;;5337983;26;20015;-70
2024/04/17 11:49:39;;;;;;;2.08;0.40;;;7.00;99.90;;;;;;5369920;26;20015;-71
2024/04/17 11:52:07;;;;;;;1.15;0.25;;;6.90;99.90;;;;;;5372901;26;20008;-70
2024/04/17 11:54:33;;;;;;;0.55;0.30;;;7.00;99.90;;;;;;5365305;26;20004;-70
2024/04/17 11:56:59;;;;;;;1.55;0.20;;;7.20;99.90;;;;;;5339356;26;20463;-72
2024/04/17 11:59:25;;;;;;;0.57;0.13;;;7.40;99.90;;;;;;5367463;26;20009;-70
2024/04/17 12:01:50;;;;;;;2.08;0.10;;;7.50;99.90;;;;;;5336536;26;20019;-72
2024/04/17 12:04:16;;;;;;;0.13;0.00;;;7.60;99.90;;;;;;5363563;26;20008;-69
2024/04/17 12:06:42;;;;;;;0.13;0.13;;;7.70;99.90;;;;;;5369987;26;20040;-69
2024/04/17 12:09:07;;;;;;;0.17;0.10;;;8.00;99.90;;;;;;5336569;26;20000;-72
2024/04/17 12:11:33;;;;;;;0.00;0.00;;;8.30;99.90;;;;;;5335676;26;20000;-70
2024/04/17 12:13:59;;;;;;;5.85;0.17;;;8.50;99.90;;;;;;5367955;26;20004;-72
2024/04/17 12:16:24;;;;;;;0.20;0.10;;;8.70;99.90;;;;;;5370595;26;20000;-71
2024/04/17 12:18:50;;;;;;;0.20;0.00;;;8.70;99.90;;;;;;5337241;26;20433;-74
2024/04/17 12:21:15;;;;;;;0.73;0.10;;;8.80;99.90;;;;;;5363752;26;19992;-72
2024/04/17 12:23:43;;;;;;;0.10;0.10;;;8.90;99.90;;;;;;5365688;26;20114;-71
2024/04/17 12:28:52;;;;;;;2.30;0.20;;;9.00;99.90;;;;;;5361124;26;20122;-72
2024/04/17 12:31:19;;;;;;;0.30;0.10;;;8.90;99.90;;;;;;5368942;26;20015;-70
2024/04/17 12:33:44;;;;;;;0.60;0.20;;;8.90;99.90;;;;;;5331545;26;20016;-71
2024/04/17 12:36:10;;;;;;;3.92;0.20;;;8.90;99.90;;;;;;5366004;26;20005;-72
2024/04/17 12:38:35;;;;;;;1.48;0.10;;;8.90;99.90;;;;;;5366407;26;20000;-71
2024/04/17 12:41:01;;;;;;;2.65;0.10;;;9.00;99.90;;;;;;5367948;26;20023;-72
2024/04/17 12:43:26;;;;;;;0.77;0.10;;;9.10;99.90;;;;;;5367922;26;20073;-71
2024/04/17 12:45:52;;;;;;;0.73;0.20;;;9.20;99.90;;;;;;5333373;26;20080;-71
2024/04/17 12:48:17;;;;;;;1.15;0.30;;;9.30;99.90;;;;;;5370072;26;20000;-72
2024/04/17 12:50:46;;;;;;;3.38;0.20;;;9.50;99.90;;;;;;5331634;26;20054;-72